Huvudsida
METAR-TAF:

METAR-TAF

Flygplatser :

Jeddah, Saudiarabien

latitud: 21-42N, longitud: 039-11E, höjd: 15 m

Aktuellt väderrapport

Denna rapport gjordes för 43 minuter sedan, klockan 15:00 UTC
Vind 12 kt från väst
Temperatur 36°C
Fuktighet 31%
Tryck 1005 hPa
Sikt 10 km eller mer
Inga moln under 1 500 m eller inga cumulonimbus

METAR: OEJN 221500Z 28012KT CAVOK 36/16 Q1005 NOSIG

Tid: 18:43 (15:43 UTC)

Väderprognos

Denna rapport gjordes för 4 timmar och 43 minuter sedan, klockan 11:00 UTC
Prognos gäller från 22 kl. 12 UTC till 23 kl. 18 UTC
Vind 12 kt från nordväst
Sikt: 7000 m
Få moln på en höjd av 4000 ft
Sannolikhet 30% :
Temporärt
från 22 kl. 13 UTC till 22 kl. 18 UTC
Få moln på en höjd av 3000 ft, Cumulonimbus.
Spridda moln på en höjd av 9000 ft
Blir
från 22 kl. 18 UTC till 22 kl. 20 UTC
Vind 10 kt från nord

TAF: OEJN 221100Z 2212/2318 32012KT 7000 FEW040 PROB30 TEMPO 2213/2218 FEW030CB SCT090 BECMG 2218/2220 36010KT

Aktuella väderrapporter och prognoser från 4000 flygplatser (METAR- och TAF-rapporter).

De tillgängliga stationerna syns som gula och röda prickar på kartan.

För musen över prickarna för att se namnen på stationerna.

Klicka sedan för att få väderrapporter och prognoser.

För att ändra kartan: Klicka på de gröna knapparna med ett svart kors på för att zooma in; den gröna knappen med ett streck på för att zooma ut; eller på de gröna pilarna för angränsande kartor.


METAR-TAF: